Terminal Aerodrome Forecast
Issued by NWS Albany, NY

Home | Current Version | Previous Version | Text Only | Print | Product List | Glossary On
Versions: 1 2 3 4 5 6 7 8 9 10 11 12 13 14 15 16
947
FTUS41 KALY 141722
TAFALB
TAF
KALB 141722Z 1418/1518 31009KT P6SM SKC
     FM150000 31003KT P6SM SKC
     FM151500 16006KT P6SM SCT100 BKN150=

USA.gov is the U.S. government's official web portal to all federal, state and local government web resources and services.